Time;durP1;ratioP1;P1;durP2;ratioP2;P2;SDS_P1;SDS_P2;PMS_P1;PMS_P2;Temp;Humidity;BMP_temperature;BMP_pressure;BME280_temperature;BME280_humidity;BME280_pressure;Samples;Min_cycle;Max_cycle;Signal;HPM_P1;HPM_P2
2022/09/15 00:00:44;;;;;;;2.10;1.83;;;17.90;99.90;;;;;;4890214;29;20192;-87
2022/09/15 00:03:10;;;;;;;3.67;2.67;;;17.70;99.90;;;;;;4897134;29;20302;-89
2022/09/15 00:05:38;;;;;;;4.40;2.03;;;17.70;99.90;;;;;;4882452;29;20515;-88
2022/09/15 00:08:06;;;;;;;2.50;2.30;;;17.60;99.90;;;;;;4893559;29;22086;-91
2022/09/15 00:10:32;;;;;;;2.03;1.93;;;17.60;99.90;;;;;;4882572;29;22034;-88
2022/09/15 00:13:21;;;;;;;2.83;2.50;;;17.50;99.90;;;;;;4884226;29;20576;-88
2022/09/15 00:15:54;;;;;;;4.50;2.80;;;17.60;99.90;;;;;;4887499;29;20192;-89
2022/09/15 00:18:20;;;;;;;3.27;2.13;;;17.60;99.90;;;;;;4881619;29;20444;-89
2022/09/15 00:20:46;;;;;;;2.60;2.40;;;17.60;99.90;;;;;;4884581;29;20200;-90
2022/09/15 00:23:14;;;;;;;2.87;2.17;;;17.60;99.90;;;;;;4876953;29;21469;-90
2022/09/15 00:25:48;;;;;;;3.53;2.30;;;17.60;99.90;;;;;;4882396;29;20503;-88
2022/09/15 00:28:16;;;;;;;2.33;2.23;;;17.60;99.90;;;;;;4881194;29;20472;-89
2022/09/15 00:30:43;;;;;;;2.50;2.30;;;17.60;99.90;;;;;;4886066;29;20452;-89
2022/09/15 00:33:09;;;;;;;2.30;2.10;;;17.60;99.90;;;;;;4883410;29;20525;-89
2022/09/15 00:35:40;;;;;;;2.07;1.97;;;17.60;99.90;;;;;;4881396;29;20557;-89
2022/09/15 00:38:06;;;;;;;2.60;2.40;;;17.60;99.90;;;;;;4887669;29;20849;-89
2022/09/15 00:40:33;;;;;;;2.63;2.37;;;17.60;99.90;;;;;;4889194;29;20570;-89
2022/09/15 00:42:58;;;;;;;3.30;2.40;;;17.60;99.90;;;;;;4892719;29;21016;-89
2022/09/15 00:45:24;;;;;;;2.73;2.53;;;17.60;99.90;;;;;;4895355;29;20810;-89
2022/09/15 00:47:51;;;;;;;2.53;2.33;;;17.60;99.90;;;;;;4885087;29;20809;-89
2022/09/15 00:50:28;;;;;;;5.03;2.60;;;17.60;99.90;;;;;;4897265;29;20271;-89
2022/09/15 00:52:59;;;;;;;3.33;2.30;;;17.60;99.90;;;;;;4892128;29;20475;-89
2022/09/15 00:55:29;;;;;;;2.27;2.17;;;17.60;99.90;;;;;;4883683;29;20250;-89
2022/09/15 00:58:05;;;;;;;7.30;2.30;;;17.60;99.90;;;;;;4882203;29;20550;-87
2022/09/15 01:00:31;;;;;;;2.50;2.30;;;17.60;99.90;;;;;;4909725;29;20448;-89
2022/09/15 01:02:57;;;;;;;2.77;2.57;;;17.60;99.90;;;;;;4896942;29;20790;-90
2022/09/15 01:05:33;;;;;;;2.57;2.37;;;17.60;99.90;;;;;;4892568;29;20242;-89
2022/09/15 01:08:10;;;;;;;3.20;2.40;;;17.60;99.90;;;;;;4895923;29;20451;-89
2022/09/15 01:10:38;;;;;;;2.50;2.30;;;17.60;99.90;;;;;;4893222;29;20451;-90
2022/09/15 01:13:07;;;;;;;3.00;2.60;;;17.60;99.90;;;;;;4901246;29;20818;-89
2022/09/15 01:16:08;;;;;;;3.83;2.70;;;17.60;99.90;;;;;;4888294;29;21058;-89
2022/09/15 01:18:39;;;;;;;2.63;2.43;;;17.50;99.90;;;;;;4897975;29;20443;-90
2022/09/15 01:21:17;;;;;;;3.00;2.70;;;17.50;99.90;;;;;;4893938;29;20956;-89
2022/09/15 01:24:04;;;;;;;3.50;2.80;;;17.50;99.90;;;;;;4894222;29;20451;-89
2022/09/15 01:26:48;;;;;;;2.77;2.53;;;17.50;99.90;;;;;;4900694;29;20448;-88
2022/09/15 01:29:38;;;;;;;2.50;2.30;;;17.50;99.90;;;;;;4888469;29;20447;-89
2022/09/15 01:35:26;;;;;;;3.37;2.40;;;17.50;99.90;;;;;;4913337;29;20466;-89
2022/09/15 01:37:59;;;;;;;2.50;2.30;;;17.50;99.90;;;;;;4887658;29;20810;-88
2022/09/15 01:40:33;;;;;;;4.00;2.43;;;17.50;99.90;;;;;;4890152;29;20445;-89
2022/09/15 01:43:00;;;;;;;4.50;2.67;;;17.50;99.90;;;;;;4905367;29;21259;-88
2022/09/15 01:45:29;;;;;;;4.60;2.73;;;17.40;99.90;;;;;;4890747;29;21601;-89
2022/09/15 01:47:58;;;;;;;2.80;2.60;;;17.40;99.90;;;;;;4891313;29;20984;-88
2022/09/15 01:50:31;;;;;;;3.40;2.70;;;17.30;99.90;;;;;;4892370;29;20448;-89
2022/09/15 01:53:02;;;;;;;3.33;2.50;;;17.30;99.90;;;;;;4887837;29;21036;-88
2022/09/15 01:55:45;;;;;;;2.80;2.60;;;17.20;99.90;;;;;;4887731;29;20625;-89
2022/09/15 01:58:11;;;;;;;3.93;2.17;;;17.20;99.90;;;;;;4903640;29;20443;-89
2022/09/15 02:00:42;;;;;;;3.60;2.23;;;17.30;99.90;;;;;;4901685;29;20467;-90
2022/09/15 02:03:24;;;;;;;3.03;2.73;;;17.30;99.90;;;;;;4894698;29;20210;-89
2022/09/15 02:06:01;;;;;;;3.37;1.90;;;17.30;99.90;;;;;;4887011;29;20453;-89
2022/09/15 02:08:38;;;;;;;2.23;2.13;;;17.30;99.90;;;;;;4905276;29;20493;-89
2022/09/15 02:11:17;;;;;;;2.70;2.03;;;17.30;99.90;;;;;;4899967;29;20451;-90
2022/09/15 02:14:09;;;;;;;2.90;2.40;;;17.30;99.90;;;;;;4888090;29;20620;-89
2022/09/15 02:16:36;;;;;;;2.20;2.10;;;17.30;99.90;;;;;;4883696;29;20442;-90
2022/09/15 02:19:33;;;;;;;2.37;2.27;;;17.30;99.90;;;;;;4906175;29;20447;-91
2022/09/15 02:22:06;;;;;;;2.50;2.13;;;17.20;99.90;;;;;;4897894;29;20821;-89
2022/09/15 02:24:41;;;;;;;2.07;1.90;;;17.20;99.90;;;;;;4898216;29;20447;-90
2022/09/15 02:27:23;;;;;;;2.90;2.00;;;17.30;99.90;;;;;;4895176;29;21052;-90
2022/09/15 02:29:51;;;;;;;3.33;1.90;;;17.30;99.90;;;;;;4896951;29;20973;-91
2022/09/15 02:32:19;;;;;;;3.20;2.40;;;17.30;99.90;;;;;;4896781;29;20672;-90
2022/09/15 02:34:50;;;;;;;3.17;2.50;;;17.30;99.90;;;;;;4898094;29;20455;-90
2022/09/15 02:37:19;;;;;;;2.17;2.03;;;17.20;99.90;;;;;;4901423;29;20988;-90
2022/09/15 02:39:53;;;;;;;4.10;2.20;;;17.20;99.90;;;;;;4903073;29;20448;-92
2022/09/15 02:42:30;;;;;;;2.60;2.10;;;17.20;99.90;;;;;;4894862;29;20495;-90
2022/09/15 02:44:57;;;;;;;2.50;2.30;;;17.30;99.90;;;;;;4896075;29;20502;-89
2022/09/15 02:47:23;;;;;;;6.03;2.53;;;17.20;99.90;;;;;;4912076;29;21786;-90
2022/09/15 02:49:49;;;;;;;3.80;2.13;;;17.30;99.90;;;;;;4911860;29;20440;-90
2022/09/15 02:52:15;;;;;;;2.80;2.50;;;17.30;99.90;;;;;;4895495;29;20478;-90
2022/09/15 02:54:40;;;;;;;2.27;2.03;;;17.30;99.90;;;;;;4898450;29;20202;-90
2022/09/15 02:57:06;;;;;;;5.87;2.90;;;17.20;99.90;;;;;;4896631;29;20179;-91
2022/09/15 03:02:26;;;;;;;2.53;2.33;;;17.20;99.90;;;;;;4915632;29;20471;-91
2022/09/15 03:04:51;;;;;;;3.50;2.50;;;17.20;99.90;;;;;;4906877;29;20455;-90
2022/09/15 03:07:23;;;;;;;2.07;1.97;;;17.20;99.90;;;;;;4897967;29;21015;-90
2022/09/15 03:09:54;;;;;;;4.47;2.20;;;17.20;99.90;;;;;;4912844;29;20299;-90
2022/09/15 03:12:24;;;;;;;1.93;1.73;;;17.20;99.90;;;;;;4895371;29;20814;-89
2022/09/15 03:14:50;;;;;;;3.60;2.20;;;17.20;99.90;;;;;;4899291;29;20499;-90
2022/09/15 03:17:16;;;;;;;3.73;2.10;;;17.10;99.90;;;;;;4900673;29;21236;-90
2022/09/15 03:19:41;;;;;;;3.30;2.37;;;17.10;99.90;;;;;;4890640;29;20479;-89
2022/09/15 03:22:08;;;;;;;2.27;2.07;;;17.10;99.90;;;;;;4885364;29;20590;-89
2022/09/15 03:24:36;;;;;;;4.90;2.20;;;17.10;99.90;;;;;;4892681;29;20192;-90
2022/09/15 03:27:02;;;;;;;2.03;1.83;;;17.10;99.90;;;;;;4897283;29;20440;-89
2022/09/15 03:29:32;;;;;;;2.40;2.20;;;17.10;99.90;;;;;;4885901;29;20466;-90
2022/09/15 03:32:04;;;;;;;3.30;1.93;;;17.00;99.90;;;;;;4881558;29;20228;-89
2022/09/15 03:34:35;;;;;;;4.00;2.63;;;17.00;99.90;;;;;;4878275;29;20472;-90
2022/09/15 03:37:00;;;;;;;2.10;1.90;;;17.00;99.90;;;;;;4898000;29;20518;-88
2022/09/15 03:39:26;;;;;;;2.23;1.60;;;17.10;99.90;;;;;;4879436;29;20712;-89
2022/09/15 03:41:52;;;;;;;3.00;2.00;;;17.00;99.90;;;;;;4895818;29;20188;-89
2022/09/15 03:44:17;;;;;;;1.77;1.67;;;17.10;99.90;;;;;;4878322;29;20187;-90
2022/09/15 03:46:43;;;;;;;5.67;2.10;;;17.10;99.90;;;;;;4883513;29;20658;-88
2022/09/15 03:49:09;;;;;;;3.73;1.70;;;17.10;99.90;;;;;;4881622;29;20275;-87
2022/09/15 03:51:37;;;;;;;1.80;1.70;;;17.10;99.90;;;;;;4903690;29;20248;-87
2022/09/15 03:54:03;;;;;;;2.83;1.80;;;17.10;99.90;;;;;;4897450;29;20211;-88
2022/09/15 03:56:31;;;;;;;3.00;1.90;;;17.10;99.90;;;;;;4881559;29;20446;-88
2022/09/15 03:59:07;;;;;;;2.07;1.97;;;17.20;99.90;;;;;;4899113;29;20195;-88
2022/09/15 04:01:36;;;;;;;1.43;1.40;;;17.10;99.90;;;;;;4885401;29;20428;-88
2022/09/15 04:04:10;;;;;;;1.73;1.60;;;17.20;99.90;;;;;;4887758;29;20409;-89
2022/09/15 04:06:40;;;;;;;1.50;1.40;;;17.20;99.90;;;;;;4883264;29;20451;-88
2022/09/15 04:09:09;;;;;;;3.23;1.70;;;17.20;99.90;;;;;;4891541;29;20439;-88
2022/09/15 04:11:38;;;;;;;1.60;1.50;;;17.20;99.90;;;;;;4884938;29;20448;-90
2022/09/15 04:14:12;;;;;;;4.00;1.60;;;17.20;99.90;;;;;;4887323;29;22535;-89
2022/09/15 04:16:40;;;;;;;2.60;1.70;;;17.20;99.90;;;;;;4888551;29;20453;-90
2022/09/15 04:19:06;;;;;;;1.70;1.60;;;17.10;99.90;;;;;;4885972;29;20458;-88
2022/09/15 04:21:38;;;;;;;1.67;1.40;;;17.10;99.90;;;;;;4888001;29;20463;-89
2022/09/15 04:24:12;;;;;;;1.77;1.67;;;17.10;99.90;;;;;;4892736;29;20614;-86
2022/09/15 04:26:38;;;;;;;1.30;1.20;;;17.10;99.90;;;;;;4880039;29;21141;-88
2022/09/15 04:29:10;;;;;;;1.30;1.20;;;17.10;99.90;;;;;;4881749;29;20448;-89
2022/09/15 04:31:37;;;;;;;24.97;22.97;;;17.10;99.90;;;;;;4890959;29;20470;-89
2022/09/15 04:34:04;;;;;;;86.97;78.53;;;17.10;99.90;;;;;;4895676;29;20494;-91
2022/09/15 04:36:53;;;;;;;2.03;1.87;;;17.10;99.90;;;;;;4892360;29;20456;-94
2022/09/15 04:39:19;;;;;;;2.50;1.60;;;17.10;99.90;;;;;;4906509;29;20453;-95
2022/09/15 04:41:44;;;;;;;2.77;1.50;;;17.10;99.90;;;;;;4890947;29;20515;-94
2022/09/15 04:44:10;;;;;;;1.50;1.27;;;17.10;99.90;;;;;;4898634;29;20704;-95
2022/09/15 04:46:36;;;;;;;1.70;1.60;;;17.10;99.90;;;;;;4903150;29;20207;-95
2022/09/15 04:49:14;;;;;;;1.90;1.40;;;17.00;99.90;;;;;;4903910;29;20203;-95
2022/09/15 04:51:52;;;;;;;3.23;1.40;;;17.00;99.90;;;;;;4899999;29;20211;-94
2022/09/15 04:54:19;;;;;;;2.83;1.17;;;17.00;99.90;;;;;;4898989;29;20958;-87
2022/09/15 04:56:57;;;;;;;1.33;1.23;;;17.00;99.90;;;;;;4906385;29;20539;-88
2022/09/15 04:59:22;;;;;;;1.87;1.33;;;17.00;99.90;;;;;;4895918;29;20492;-87
2022/09/15 05:01:48;;;;;;;1.47;1.37;;;17.00;99.90;;;;;;4892866;29;20190;-93
2022/09/15 05:04:14;;;;;;;2.17;1.60;;;17.00;99.90;;;;;;4892827;29;21106;-93
2022/09/15 05:06:39;;;;;;;1.37;1.27;;;17.00;99.90;;;;;;4893873;29;20881;-90
2022/09/15 05:09:17;;;;;;;1.83;1.43;;;17.10;99.90;;;;;;4895190;29;20226;-92
2022/09/15 05:11:46;;;;;;;2.13;1.27;;;17.20;99.90;;;;;;4913528;29;20512;-91
2022/09/15 05:14:11;;;;;;;3.07;1.60;;;17.20;99.90;;;;;;4899883;29;20485;-92
2022/09/15 05:16:38;;;;;;;1.90;1.40;;;17.20;99.90;;;;;;4895923;29;20784;-92
2022/09/15 05:19:15;;;;;;;1.67;1.20;;;17.20;99.90;;;;;;4914050;29;20190;-92
2022/09/15 05:22:13;;;;;;;6.30;1.60;;;17.30;99.90;;;;;;4916148;29;20554;-92
2022/09/15 05:24:38;;;;;;;2.33;1.40;;;17.30;99.90;;;;;;4900273;29;20521;-92
2022/09/15 05:27:04;;;;;;;2.40;1.50;;;17.20;99.90;;;;;;4899587;29;20443;-92
2022/09/15 05:29:30;;;;;;;1.60;1.50;;;17.30;99.90;;;;;;4896553;29;20188;-90
2022/09/15 05:31:55;;;;;;;1.97;1.40;;;17.30;99.90;;;;;;4898197;29;20247;-93
2022/09/15 05:34:21;;;;;;;3.73;1.30;;;17.30;99.90;;;;;;4906066;29;20417;-93
2022/09/15 05:36:47;;;;;;;1.83;1.33;;;17.30;99.90;;;;;;4904672;29;20184;-92
2022/09/15 05:39:12;;;;;;;2.80;1.63;;;17.30;99.90;;;;;;4901825;29;20199;-92
2022/09/15 05:41:38;;;;;;;1.93;1.33;;;17.30;99.90;;;;;;4898490;29;20237;-91
2022/09/15 05:44:04;;;;;;;3.57;1.30;;;17.20;99.90;;;;;;4888274;29;20188;-94
2022/09/15 05:46:29;;;;;;;1.60;1.50;;;17.20;99.90;;;;;;4903314;29;20921;-92
2022/09/15 05:48:57;;;;;;;2.10;1.43;;;17.10;99.90;;;;;;4895592;29;20214;-92
2022/09/15 05:51:23;;;;;;;1.50;1.40;;;17.10;99.90;;;;;;4895258;29;20238;-91
2022/09/15 05:53:51;;;;;;;2.97;1.40;;;17.10;99.90;;;;;;4894488;29;20495;-92
2022/09/15 05:56:18;;;;;;;2.40;1.20;;;17.00;99.90;;;;;;4900623;29;20436;-91
2022/09/15 05:58:46;;;;;;;2.93;1.70;;;17.00;99.90;;;;;;4895829;29;20450;-91
2022/09/15 06:01:23;;;;;;;2.07;1.87;;;17.00;99.90;;;;;;4896270;29;20463;-90
2022/09/15 06:03:50;;;;;;;4.00;1.63;;;17.00;99.90;;;;;;4893138;29;22296;-92
2022/09/15 06:06:16;;;;;;;1.80;1.70;;;17.00;99.90;;;;;;4888592;29;20435;-93
2022/09/15 06:08:50;;;;;;;2.37;1.80;;;17.00;99.90;;;;;;4889168;29;20447;-91
2022/09/15 06:11:18;;;;;;;1.47;1.37;;;17.10;99.90;;;;;;4898778;29;20586;-92
2022/09/15 06:13:45;;;;;;;1.73;1.43;;;17.10;99.90;;;;;;4891098;29;20483;-92
2022/09/15 06:16:20;;;;;;;1.57;1.40;;;17.10;99.90;;;;;;4896193;29;20448;-91
2022/09/15 06:18:47;;;;;;;2.60;1.70;;;17.00;99.90;;;;;;4895531;29;20573;-91
2022/09/15 06:21:27;;;;;;;2.17;1.30;;;17.10;99.90;;;;;;4893611;29;20505;-91
2022/09/15 06:24:12;;;;;;;2.30;1.90;;;17.00;99.90;;;;;;4890386;29;20550;-91
2022/09/15 06:26:46;;;;;;;1.63;1.53;;;17.00;99.90;;;;;;4907745;29;20439;-92
2022/09/15 06:29:12;;;;;;;1.67;1.57;;;17.10;99.90;;;;;;4892329;29;21115;-91
2022/09/15 06:31:43;;;;;;;3.17;1.50;;;17.00;99.90;;;;;;4889931;29;20197;-91
2022/09/15 06:34:14;;;;;;;1.83;1.70;;;17.00;99.90;;;;;;4910189;29;20491;-91
2022/09/15 06:36:39;;;;;;;1.70;1.60;;;17.10;99.90;;;;;;4891556;29;21027;-90
2022/09/15 06:39:05;;;;;;;2.00;1.40;;;17.10;99.90;;;;;;4897951;29;20454;-91
2022/09/15 06:41:31;;;;;;;1.40;1.30;;;17.10;99.90;;;;;;4902247;29;20208;-91
2022/09/15 06:43:56;;;;;;;1.97;1.30;;;17.00;99.90;;;;;;4892378;29;20184;-91
2022/09/15 06:46:24;;;;;;;2.80;1.30;;;17.00;99.90;;;;;;4899351;29;20190;-91
2022/09/15 06:48:52;;;;;;;1.57;1.47;;;17.00;99.90;;;;;;4894723;29;20200;-91
2022/09/15 06:51:20;;;;;;;1.87;1.77;;;17.10;99.90;;;;;;4892149;29;20440;-91
2022/09/15 06:53:46;;;;;;;2.07;1.80;;;17.10;99.90;;;;;;4894885;29;20848;-92
2022/09/15 06:56:15;;;;;;;2.27;1.90;;;17.10;99.90;;;;;;4896271;29;20435;-92
2022/09/15 06:58:42;;;;;;;1.97;1.60;;;17.20;99.90;;;;;;4881510;29;21246;-92
2022/09/15 07:01:13;;;;;;;4.87;1.90;;;17.20;99.90;;;;;;4890268;29;20444;-91
2022/09/15 07:03:43;;;;;;;1.53;1.43;;;17.20;99.90;;;;;;4889354;29;20546;-92
2022/09/15 07:06:26;;;;;;;1.60;1.50;;;17.20;99.90;;;;;;4887895;29;21137;-92
2022/09/15 07:08:52;;;;;;;3.73;1.97;;;17.20;99.90;;;;;;4894004;29;20444;-92
2022/09/15 07:11:19;;;;;;;1.67;1.40;;;17.20;99.90;;;;;;4888731;29;20542;-91
2022/09/15 07:13:47;;;;;;;2.20;1.53;;;17.20;99.90;;;;;;4896711;29;20472;-93
2022/09/15 07:16:15;;;;;;;1.43;1.33;;;17.10;99.90;;;;;;4907738;29;20435;-90
2022/09/15 07:18:45;;;;;;;3.77;1.77;;;17.10;99.90;;;;;;4890036;29;20449;-91
2022/09/15 07:21:14;;;;;;;1.77;1.53;;;17.10;99.90;;;;;;4892658;29;20447;-91
2022/09/15 07:24:00;;;;;;;4.60;1.90;;;17.00;99.90;;;;;;4894485;29;20562;-91
2022/09/15 07:26:28;;;;;;;2.23;1.90;;;17.00;99.90;;;;;;4888179;29;20961;-90
2022/09/15 07:28:59;;;;;;;2.23;1.67;;;17.00;99.90;;;;;;4895819;29;20451;-90
2022/09/15 07:31:27;;;;;;;2.30;1.80;;;17.00;99.90;;;;;;4885972;29;20879;-91
2022/09/15 07:33:53;;;;;;;4.23;1.90;;;17.00;99.90;;;;;;4890200;29;20583;-91
2022/09/15 07:36:19;;;;;;;2.17;1.97;;;17.10;99.90;;;;;;4907264;29;20447;-90
2022/09/15 07:38:54;;;;;;;1.87;1.77;;;17.10;99.90;;;;;;4893437;29;20226;-91
2022/09/15 07:41:28;;;;;;;1.70;1.60;;;17.20;99.90;;;;;;4901472;29;20183;-91
2022/09/15 07:43:58;;;;;;;3.83;1.80;;;17.20;99.90;;;;;;4903122;29;20443;-91
2022/09/15 07:46:25;;;;;;;2.13;1.80;;;17.20;99.90;;;;;;4886877;29;20819;-93
2022/09/15 07:48:55;;;;;;;1.73;1.60;;;17.40;99.90;;;;;;4885712;29;21365;-91
2022/09/15 07:51:21;;;;;;;4.23;1.60;;;17.30;99.90;;;;;;4909955;29;21353;-91
2022/09/15 07:53:48;;;;;;;2.20;1.90;;;17.40;99.90;;;;;;4892954;29;20537;-90
2022/09/15 07:56:17;;;;;;;2.50;1.80;;;17.40;99.90;;;;;;4892214;29;21048;-91
2022/09/15 07:58:46;;;;;;;2.20;1.60;;;17.40;99.90;;;;;;4894037;29;20451;-92
2022/09/15 08:01:14;;;;;;;3.40;1.50;;;17.50;99.90;;;;;;4888093;29;20987;-89
2022/09/15 08:03:47;;;;;;;2.07;1.50;;;17.50;99.90;;;;;;4903176;29;20819;-91
2022/09/15 08:06:14;;;;;;;1.90;1.70;;;17.50;99.90;;;;;;4909955;29;20439;-91
2022/09/15 08:08:42;;;;;;;1.93;1.73;;;17.60;99.90;;;;;;4891724;29;20452;-92
2022/09/15 08:11:10;;;;;;;1.70;1.60;;;17.60;99.90;;;;;;4895495;29;20439;-89
2022/09/15 08:13:42;;;;;;;1.80;1.70;;;17.70;99.90;;;;;;4885639;29;20468;-89
2022/09/15 08:16:20;;;;;;;2.40;1.90;;;17.70;99.90;;;;;;4910261;29;20451;-89
2022/09/15 08:18:47;;;;;;;2.23;1.50;;;17.70;99.90;;;;;;4908865;29;20458;-89
2022/09/15 08:21:19;;;;;;;2.07;1.77;;;17.70;99.90;;;;;;4903079;29;20436;-89
2022/09/15 08:24:00;;;;;;;1.77;1.67;;;17.70;99.90;;;;;;4910962;29;20550;-89
2022/09/15 08:26:32;;;;;;;2.03;1.50;;;17.60;99.90;;;;;;4900376;29;20493;-89
2022/09/15 08:29:01;;;;;;;1.80;1.70;;;17.80;99.90;;;;;;4916521;29;20950;-90
2022/09/15 08:31:27;;;;;;;3.23;1.90;;;17.70;99.90;;;;;;4905204;29;20183;-89
2022/09/15 08:33:54;;;;;;;2.73;2.20;;;17.60;99.90;;;;;;4896892;29;21121;-89
2022/09/15 08:36:20;;;;;;;2.37;2.17;;;18.00;99.90;;;;;;4893633;29;20957;-88
2022/09/15 08:38:52;;;;;;;4.00;2.10;;;18.20;99.90;;;;;;4905081;29;20446;-89
2022/09/15 08:41:41;;;;;;;2.13;1.73;;;17.30;99.90;;;;;;4916143;29;20435;-88
2022/09/15 08:45:08;;;;;;;1.80;1.70;;;17.70;99.90;;;;;;4921732;29;20458;-88
2022/09/15 08:47:44;;;;;;;2.57;1.90;;;17.80;99.90;;;;;;4880059;29;20445;-88
2022/09/15 08:50:42;;;;;;;3.23;2.13;;;17.90;99.90;;;;;;4903216;29;20610;-88
2022/09/15 08:53:21;;;;;;;1.93;1.60;;;18.00;99.90;;;;;;4906404;29;20474;-89
2022/09/15 08:55:58;;;;;;;2.00;1.90;;;18.10;99.90;;;;;;4904000;29;20474;-89
2022/09/15 08:58:35;;;;;;;1.57;1.47;;;18.30;99.90;;;;;;4894733;29;20450;-89
2022/09/15 09:01:10;;;;;;;1.97;1.87;;;19.00;99.90;;;;;;4903436;29;20431;-89
2022/09/15 09:04:05;;;;;;;1.83;1.70;;;18.60;99.90;;;;;;4915064;29;20443;-89
2022/09/15 09:07:22;;;;;;;1.50;1.40;;;18.60;99.90;;;;;;4916831;29;21261;-89
2022/09/15 09:10:13;;;;;;;1.53;1.43;;;18.60;99.90;;;;;;4903852;29;20443;-90
2022/09/15 09:13:16;;;;;;;1.20;1.10;;;18.50;99.90;;;;;;4914758;29;20588;-91
2022/09/15 09:16:08;;;;;;;2.13;1.50;;;18.40;99.90;;;;;;4918199;29;20543;-89
2022/09/15 09:19:02;;;;;;;1.27;1.17;;;18.40;99.90;;;;;;4905627;29;20459;-90
2022/09/15 09:21:52;;;;;;;1.10;1.10;;;18.50;99.90;;;;;;4904418;29;20574;-89
2022/09/15 09:24:41;;;;;;;1.83;1.73;;;18.50;99.90;;;;;;4907374;29;21114;-90
2022/09/15 09:27:17;;;;;;;1.77;1.67;;;18.60;99.90;;;;;;4902493;29;20459;-89
2022/09/15 09:30:14;;;;;;;3.03;1.50;;;18.60;99.90;;;;;;4902083;29;20450;-89
2022/09/15 09:33:09;;;;;;;0.80;0.80;;;18.60;99.90;;;;;;4892254;29;20440;-88
2022/09/15 09:35:41;;;;;;;1.20;1.20;;;18.50;99.90;;;;;;4905337;29;20481;-89
2022/09/15 09:38:11;;;;;;;2.10;1.27;;;18.50;99.90;;;;;;4895482;29;20443;-88
2022/09/15 09:41:02;;;;;;;1.13;1.10;;;18.60;99.90;;;;;;4907891;29;21666;-88
2022/09/15 09:43:47;;;;;;;1.37;0.90;;;18.90;99.90;;;;;;4894800;29;20774;-88
2022/09/15 09:46:18;;;;;;;1.20;1.10;;;19.10;99.90;;;;;;4890295;29;20462;-89
2022/09/15 09:49:11;;;;;;;2.30;1.03;;;19.20;99.90;;;;;;4897406;29;20469;-89
2022/09/15 09:51:51;;;;;;;1.97;1.20;;;19.40;99.90;;;;;;4893456;29;20596;-90
2022/09/15 09:54:19;;;;;;;1.00;1.00;;;19.40;99.90;;;;;;4895674;29;20478;-89
2022/09/15 09:56:53;;;;;;;0.97;0.97;;;19.30;99.90;;;;;;4893999;29;20444;-89
2022/09/15 09:59:41;;;;;;;1.07;0.97;;;19.40;99.90;;;;;;4886018;29;20821;-88
2022/09/15 10:02:09;;;;;;;1.23;1.23;;;19.60;99.90;;;;;;4888313;29;20898;-87
2022/09/15 10:04:57;;;;;;;2.23;1.20;;;19.50;99.90;;;;;;4908376;29;20843;-87
2022/09/15 10:07:44;;;;;;;0.90;0.90;;;19.50;99.90;;;;;;4888189;29;20443;-88
2022/09/15 10:10:39;;;;;;;0.80;0.80;;;19.40;99.90;;;;;;4879851;29;20460;-88
2022/09/15 10:13:05;;;;;;;1.27;1.17;;;19.20;99.90;;;;;;4886895;29;20507;-87
2022/09/15 10:15:35;;;;;;;1.30;1.20;;;19.30;99.90;;;;;;4903556;29;21032;-87
2022/09/15 10:18:01;;;;;;;1.17;1.10;;;19.30;99.90;;;;;;4877506;29;20515;-88
2022/09/15 10:20:31;;;;;;;1.03;1.03;;;19.40;99.90;;;;;;4897104;29;20448;-87
2022/09/15 10:23:22;;;;;;;2.60;1.10;;;19.40;99.90;;;;;;4890702;29;20324;-88
2022/09/15 10:26:05;;;;;;;1.40;1.30;;;19.50;99.90;;;;;;4893604;29;21355;-88
2022/09/15 10:28:59;;;;;;;1.70;1.20;;;19.50;99.90;;;;;;4909505;29;20440;-88
2022/09/15 10:31:31;;;;;;;2.00;1.40;;;19.30;99.90;;;;;;4889376;29;20458;-90
2022/09/15 10:33:56;;;;;;;1.37;1.27;;;19.30;99.90;;;;;;4893414;29;21430;-90
2022/09/15 10:36:33;;;;;;;1.33;1.00;;;19.30;99.90;;;;;;4890811;29;20450;-89
2022/09/15 10:39:39;;;;;;;1.53;1.40;;;19.30;99.90;;;;;;4889380;29;20211;-88
2022/09/15 10:42:40;;;;;;;1.20;1.10;;;19.40;99.90;;;;;;4905346;29;20811;-90
2022/09/15 10:45:09;;;;;;;1.70;1.30;;;19.40;99.90;;;;;;4887442;29;20814;-89
2022/09/15 10:47:50;;;;;;;2.20;1.73;;;19.50;99.90;;;;;;4889784;29;20446;-89
2022/09/15 10:50:29;;;;;;;1.17;1.17;;;19.50;99.90;;;;;;4905075;29;20438;-89
2022/09/15 10:53:12;;;;;;;1.83;1.63;;;19.50;99.90;;;;;;4897641;29;20474;-90
2022/09/15 10:56:06;;;;;;;1.50;1.40;;;19.40;99.90;;;;;;4901017;29;20984;-89
2022/09/15 10:59:02;;;;;;;1.10;0.90;;;19.00;99.90;;;;;;4905270;29;20686;-88
2022/09/15 11:01:39;;;;;;;0.37;0.37;;;18.20;99.90;;;;;;4905148;29;20557;-88
2022/09/15 11:04:29;;;;;;;0.40;0.30;;;17.40;99.90;;;;;;4895535;29;20526;-88
2022/09/15 11:07:00;;;;;;;2.30;0.60;;;17.10;99.90;;;;;;4886798;29;20452;-88
2022/09/15 11:09:35;;;;;;;0.90;0.40;;;16.70;99.90;;;;;;4889715;29;20443;-86
2022/09/15 11:12:15;;;;;;;1.00;0.47;;;16.60;99.90;;;;;;4892214;29;20450;-87
2022/09/15 11:15:16;;;;;;;1.43;0.30;;;16.40;99.90;;;;;;4902570;29;20471;-86
2022/09/15 11:18:13;;;;;;;0.60;0.30;;;16.30;99.90;;;;;;4893132;29;20835;-87
2022/09/15 11:21:13;;;;;;;0.40;0.40;;;16.30;99.90;;;;;;4912903;29;20451;-87
2022/09/15 11:24:01;;;;;;;1.43;1.10;;;16.30;99.90;;;;;;4886943;29;20581;-87
2022/09/15 11:26:34;;;;;;;3.37;1.43;;;16.10;99.90;;;;;;4886644;29;20451;-87
2022/09/15 11:29:30;;;;;;;1.43;1.33;;;15.90;99.90;;;;;;4888534;29;20444;-83
2022/09/15 11:32:28;;;;;;;1.93;1.80;;;15.60;99.90;;;;;;4895377;29;20727;-87
2022/09/15 11:35:03;;;;;;;2.50;2.30;;;15.50;99.90;;;;;;4887160;29;21334;-87
2022/09/15 11:37:38;;;;;;;4.20;3.00;;;15.50;99.90;;;;;;4896958;29;20442;-86
2022/09/15 11:40:22;;;;;;;2.93;2.73;;;15.40;99.90;;;;;;4898014;29;20998;-86
2022/09/15 11:43:28;;;;;;;3.50;3.20;;;15.30;99.90;;;;;;4886601;29;20539;-85
2022/09/15 11:45:58;;;;;;;3.33;3.03;;;15.10;99.90;;;;;;4854932;29;20485;-86
2022/09/15 11:48:42;;;;;;;2.83;2.63;;;15.00;99.90;;;;;;4886356;29;20470;-86
2022/09/15 11:51:12;;;;;;;3.67;3.30;;;15.00;99.90;;;;;;4895199;29;20451;-86
2022/09/15 11:54:16;;;;;;;3.73;3.20;;;14.80;99.90;;;;;;4894838;29;20484;-86
2022/09/15 11:56:48;;;;;;;4.20;3.70;;;14.60;99.90;;;;;;4886318;29;20480;-87
2022/09/15 11:59:25;;;;;;;5.60;4.23;;;14.70;99.90;;;;;;4894116;29;20709;-87
2022/09/15 12:02:13;;;;;;;5.10;4.20;;;14.60;99.90;;;;;;4890434;29;21005;-87
2022/09/15 12:05:03;;;;;;;5.83;5.00;;;14.60;99.90;;;;;;4891805;29;21196;-87
2022/09/15 12:07:34;;;;;;;4.87;4.47;;;14.60;99.90;;;;;;4892266;29;20505;-87
2022/09/15 12:10:22;;;;;;;6.20;5.70;;;14.70;99.90;;;;;;4888870;29;21124;-87
2022/09/15 12:12:52;;;;;;;6.00;5.50;;;14.80;99.90;;;;;;4905131;29;20527;-87
2022/09/15 12:15:26;;;;;;;5.23;4.83;;;14.80;99.90;;;;;;4894396;29;20456;-87
2022/09/15 12:18:02;;;;;;;5.47;4.97;;;14.90;99.90;;;;;;4872102;29;20547;-87
2022/09/15 12:20:41;;;;;;;5.50;5.00;;;14.80;99.90;;;;;;4884925;29;20457;-87
2022/09/15 12:23:25;;;;;;;4.70;4.40;;;14.90;99.90;;;;;;4893716;29;20462;-87
2022/09/15 12:26:09;;;;;;;5.13;4.60;;;15.10;99.90;;;;;;4889002;29;20556;-87
2022/09/15 12:28:41;;;;;;;5.53;4.50;;;15.20;99.90;;;;;;4889550;29;20440;-86
2022/09/15 12:31:28;;;;;;;3.87;3.57;;;15.40;99.90;;;;;;4891595;29;20439;-86
2022/09/15 12:34:05;;;;;;;4.43;3.87;;;15.20;99.90;;;;;;4889735;29;21700;-86
2022/09/15 12:36:40;;;;;;;3.03;2.83;;;15.20;99.90;;;;;;4894886;29;20806;-86
2022/09/15 12:39:26;;;;;;;3.90;3.50;;;15.20;99.90;;;;;;4892103;29;20447;-86
2022/09/15 12:41:58;;;;;;;4.83;3.50;;;15.20;99.90;;;;;;4901355;29;20452;-86
2022/09/15 12:44:53;;;;;;;3.73;3.43;;;15.10;99.90;;;;;;4887224;29;20438;-85
2022/09/15 12:47:39;;;;;;;4.23;3.83;;;15.00;99.90;;;;;;4885837;29;20447;-86
2022/09/15 12:50:14;;;;;;;3.93;3.53;;;14.90;99.90;;;;;;4893171;29;20455;-85
2022/09/15 12:52:49;;;;;;;4.47;4.17;;;14.80;99.90;;;;;;4892016;29;20439;-86
2022/09/15 12:55:26;;;;;;;4.27;3.70;;;14.90;99.90;;;;;;4893527;29;20822;-86
2022/09/15 12:58:08;;;;;;;4.13;3.73;;;14.90;99.90;;;;;;4889733;29;20447;-85
2022/09/15 13:00:36;;;;;;;4.43;4.03;;;15.10;99.90;;;;;;4890859;29;20443;-85
2022/09/15 13:03:04;;;;;;;4.40;4.00;;;15.30;99.90;;;;;;4891891;29;20455;-85
2022/09/15 13:05:48;;;;;;;4.00;3.60;;;15.50;99.90;;;;;;4893056;29;20433;-85
2022/09/15 13:08:22;;;;;;;3.90;3.60;;;15.80;99.90;;;;;;4890541;29;20569;-86
2022/09/15 13:11:11;;;;;;;4.20;3.80;;;16.10;99.90;;;;;;4890570;29;20454;-85
2022/09/15 13:14:10;;;;;;;4.60;4.13;;;16.30;99.90;;;;;;4887491;29;20489;-84
2022/09/15 13:16:39;;;;;;;4.00;3.70;;;16.50;99.90;;;;;;4885310;29;20486;-85
2022/09/15 13:19:25;;;;;;;5.60;4.13;;;16.30;99.90;;;;;;4894176;29;20474;-85
2022/09/15 13:22:10;;;;;;;5.47;4.97;;;16.30;99.90;;;;;;4888702;29;20455;-85
2022/09/15 13:24:36;;;;;;;7.00;6.30;;;16.30;99.90;;;;;;4889371;29;20490;-86
2022/09/15 13:27:04;;;;;;;6.90;5.70;;;16.40;99.90;;;;;;4890804;29;20471;-86
2022/09/15 13:29:31;;;;;;;6.70;6.10;;;16.40;99.90;;;;;;4889352;29;20952;-85